Trail Creek, Indiana
Current Conditions -  °F | °C
As of 11:15 PM on Tuesday 25 Nov 2014 (Local Time) from KMGC Reporting Station
Overcast Overcast  
Wind Chill: -4°   Ceiling: 1400
Heat Index: -4°   Visibility: 10mi
Dew Point: -7°   Wind: 3mph
Humidity: 80%   Direction: 190°S
Pressure: 30.21"   Gusts: NA
Location:  41.687°N, 86.8677°W
Report Text: KMGC 260515Z AUTO 19003KT 10SM OVC014 M04/M07 A3021 RMK AO2
Loading
Personal Weather Stations






























Interactive Weather Map New forecast layout! Learn more

10-Day Weather Forecast

Advertisements
Track Severe Weather on mobile